NCAR-RAP Real-Time Weather Data

Output produced by METARs form (26 May 2022  09:10 UTC)
found at http://weather.rap.ucar.edu/surface/
 
KBDR 260752Z AUTO 13003KT 10SM CLR 12/08 A3033 RMK AO2 SLP270 T01170078
KBDR 260652Z AUTO 13003KT 10SM CLR 12/08 A3034 RMK AO2 SLP273 T01170078
KBDR 260552Z AUTO 00000KT 10SM CLR 12/08 A3036 RMK AO2 SLP279 T01170078 10150 20117 58008
KBDR 260452Z AUTO 00000KT 10SM CLR 12/07 A3037 RMK AO2 SLP284 T01220072 401830111
KBDR 260352Z AUTO 17004KT 10SM CLR 12/07 A3038 RMK AO2 SLP286 T01220067
KBDR 260252Z AUTO 19004KT 10SM CLR 13/06 A3038 RMK AO2 SLP288 T01280056 51007
KBDR 260152Z 19005KT 10SM CLR 14/07 A3038 RMK AO2 SLP287 T01390067
KBDR 260052Z 18004KT 10SM CLR 14/07 A3037 RMK AO2 SLP283 T01440072
KBDR 252352Z 16006KT 10SM CLR 15/07 A3036 RMK AO2 SLP281 T01500072 10183 20150 53003
KBDR 252252Z 16007KT 10SM CLR 17/09 A3035 RMK AO2 SLP276 T01670089
KBDR 252152Z 13009KT 10SM CLR 17/09 A3035 RMK AO2 SLP277 T01720089
KBDR 252052Z 10011KT 10SM CLR 17/11 A3035 RMK AO2 SLP278 T01720106 58011
KBDR 251952Z 12009KT 10SM CLR 18/10 A3037 RMK AO2 SLP284 T01780100
KBDR 251852Z 11008KT 10SM CLR 17/08 A3038 RMK AO2 SLP288 T01720083
KBDR 251752Z 10008KT 10SM CLR 17/08 A3038 RMK AO2 SLP288 T01670078 10172 20133 58011
KBDR 251652Z 09006KT 10SM CLR 17/08 A3040 RMK AO2 SLP294 T01720078
KBDR 251552Z 11006KT 10SM CLR 16/10 A3041 RMK AO2 SLP298 T01610100
KBDR 251452Z 12005KT 10SM CLR 15/10 A3042 RMK AO2 SLP300 T01500100 51004
KBDR 251352Z VRB04KT 10SM CLR 14/11 A3041 RMK AO2 SLP299 T01440106
KBDR 251252Z 09005KT 10SM OVC080 14/11 A3041 RMK AO2 SLP298 T01390106
KBDR 251152Z 08007KT 10SM FEW012 SCT080 13/11 A3040 RMK AO2 SLP295 T01330106 10133 20111 53016
KBDR 251052Z 08006KT 10SM OVC080 13/10 A3037 RMK AO2 SLP284 T01280100
KBDR 250952Z AUTO 06005KT 10SM OVC080 12/09 A3036 RMK AO2 SLP282 T01170094
KBDR 250852Z AUTO 02006KT 10SM FEW080 11/09 A3036 RMK AO2 SLP279 T01110089 52005
KBDR 250752Z AUTO 02006KT 10SM CLR 11/09 A3035 RMK AO2 SLP278 T01110089
KBDR 250652Z AUTO 02005KT 10SM CLR 12/09 A3034 RMK AO2 SLP275 T01170089
KBDR 250552Z AUTO 00000KT 10SM CLR 12/08 A3034 RMK AO2 SLP274 T01220083 10156 20117 55002
KBDR 250452Z AUTO 00000KT 10SM CLR 12/09 A3034 RMK AO2 SLP273 T01220089 401780117
KBDR 250352Z AUTO 00000KT 10SM CLR 13/09 A3034 RMK AO2 SLP275 T01280089
KBDR 250252Z AUTO 00000KT 10SM CLR 13/08 A3035 RMK AO2 SLP276 T01330083 51018
KBDR 250152Z 12003KT 10SM CLR 13/09 A3034 RMK AO2 SLP273 T01330089
KBDR 250052Z 14007KT 10SM CLR 15/10 A3032 RMK AO2 SLP268 T01500100
KBDR 242352Z 07007KT 10SM CLR 16/11 A3029 RMK AO2 SLP258 T01560106 10178 20156 55001
KBDR 242252Z 09006KT 10SM OVC095 16/10 A3029 RMK AO2 SLP256 T01610100
KBDR 242152Z 07006KT 10SM BKN090 17/09 A3029 RMK AO2 SLP257 T01670089
KBDR 242052Z 10006KT 10SM FEW090 17/07 A3030 RMK AO2 SLP259 T01720072 58005
KBDR 241952Z 11008KT 10SM CLR 17/08 A3030 RMK AO2 SLP261 T01720078
KBDR 241852Z 11010KT 10SM CLR 17/08 A3031 RMK AO2 SLP263 T01720078
KBDR 241752Z 12013KT 10SM FEW080 17/07 A3031 RMK AO2 SLP264 T01720072 10172 20150 58006
KBDR 241652Z 11014KT 10SM CLR 17/08 A3032 RMK AO2 SLP266 T01670083
KBDR 241552Z 12012KT 10SM CLR 16/09 A3033 RMK AO2 SLP272 T01610094
KBDR 241452Z 10007KT 10SM CLR 16/09 A3033 RMK AO2 SLP270 T01560089 51007
KBDR 241352Z 08010KT 10SM SCT050 16/08 A3032 RMK AO2 SLP267 T01560083
KBDR 241252Z 07010KT 10SM BKN055 16/08 A3033 RMK AO2 SLP269 T01560083
KBDR 241152Z 04010KT 10SM SCT050 15/08 A3031 RMK AO2 SLP262 60000 T01500078 10150 20139 53018
KBDR 241052Z 04008KT 10SM BKN049 14/09 A3028 RMK AO2 SLP254 T01390094
KBDR 240952Z AUTO 01008KT 10SM OVC042 14/11 A3026 RMK AO2 RAE05 SLP248 P0000 T01440111